sensor_id;sensor_type;location;lat;lon;timestamp;P1;durP1;ratioP1;P2;durP2;ratioP2
14665;SDS011;7420;53.574;10.040;2022-09-30T00:01:37;12.63;;;8.55;;
14665;SDS011;7420;53.574;10.040;2022-09-30T00:04:06;11.88;;;9.23;;
14665;SDS011;7420;53.574;10.040;2022-09-30T00:06:37;12.00;;;8.65;;
14665;SDS011;7420;53.574;10.040;2022-09-30T00:09:02;10.48;;;8.30;;
14665;SDS011;7420;53.574;10.040;2022-09-30T00:11:29;10.88;;;8.80;;
14665;SDS011;7420;53.574;10.040;2022-09-30T00:13:56;13.40;;;9.30;;
14665;SDS011;7420;53.574;10.040;2022-09-30T00:16:22;10.13;;;8.15;;
14665;SDS011;7420;53.574;10.040;2022-09-30T00:18:49;13.00;;;9.35;;
14665;SDS011;7420;53.574;10.040;2022-09-30T00:21:14;12.43;;;8.73;;
14665;SDS011;7420;53.574;10.040;2022-09-30T00:23:41;9.75;;;8.13;;
14665;SDS011;7420;53.574;10.040;2022-09-30T00:26:09;12.02;;;9.35;;
14665;SDS011;7420;53.574;10.040;2022-09-30T00:28:37;13.75;;;10.05;;
14665;SDS011;7420;53.574;10.040;2022-09-30T00:31:05;13.45;;;9.45;;
14665;SDS011;7420;53.574;10.040;2022-09-30T00:33:33;13.38;;;9.15;;
14665;SDS011;7420;53.574;10.040;2022-09-30T00:35:59;13.95;;;9.45;;
14665;SDS011;7420;53.574;10.040;2022-09-30T00:38:25;10.80;;;9.43;;
14665;SDS011;7420;53.574;10.040;2022-09-30T00:40:52;12.70;;;9.50;;
14665;SDS011;7420;53.574;10.040;2022-09-30T00:43:19;13.45;;;9.50;;
14665;SDS011;7420;53.574;10.040;2022-09-30T00:46:05;10.82;;;8.82;;
14665;SDS011;7420;53.574;10.040;2022-09-30T00:48:39;11.45;;;9.23;;
14665;SDS011;7420;53.574;10.040;2022-09-30T00:51:04;12.13;;;8.90;;
14665;SDS011;7420;53.574;10.040;2022-09-30T00:58:36;13.48;;;9.65;;
14665;SDS011;7420;53.574;10.040;2022-09-30T01:01:04;15.35;;;11.15;;
14665;SDS011;7420;53.574;10.040;2022-09-30T01:03:32;12.48;;;10.20;;
14665;SDS011;7420;53.574;10.040;2022-09-30T01:06:01;14.05;;;10.13;;
14665;SDS011;7420;53.574;10.040;2022-09-30T01:08:29;14.05;;;10.10;;
14665;SDS011;7420;53.574;10.040;2022-09-30T01:10:57;16.92;;;11.38;;
14665;SDS011;7420;53.574;10.040;2022-09-30T01:13:22;13.57;;;10.35;;
14665;SDS011;7420;53.574;10.040;2022-09-30T01:22:10;14.30;;;10.45;;
14665;SDS011;7420;53.574;10.040;2022-09-30T01:30:42;14.77;;;11.02;;
14665;SDS011;7420;53.574;10.040;2022-09-30T01:36:36;15.27;;;10.80;;
14665;SDS011;7420;53.574;10.040;2022-09-30T01:39:18;17.98;;;11.70;;
14665;SDS011;7420;53.574;10.040;2022-09-30T01:52:33;12.57;;;10.85;;
14665;SDS011;7420;53.574;10.040;2022-09-30T01:55:12;16.98;;;12.23;;
14665;SDS011;7420;53.574;10.040;2022-09-30T01:57:50;19.00;;;11.48;;
14665;SDS011;7420;53.574;10.040;2022-09-30T02:00:22;15.38;;;11.88;;
14665;SDS011;7420;53.574;10.040;2022-09-30T02:02:58;16.90;;;11.25;;
14665;SDS011;7420;53.574;10.040;2022-09-30T02:05:31;14.77;;;11.13;;
14665;SDS011;7420;53.574;10.040;2022-09-30T02:08:03;16.40;;;11.85;;
14665;SDS011;7420;53.574;10.040;2022-09-30T02:10:34;18.20;;;13.25;;
14665;SDS011;7420;53.574;10.040;2022-09-30T02:13:15;19.30;;;13.82;;
14665;SDS011;7420;53.574;10.040;2022-09-30T02:15:45;18.88;;;12.68;;
14665;SDS011;7420;53.574;10.040;2022-09-30T02:18:18;17.98;;;12.60;;
14665;SDS011;7420;53.574;10.040;2022-09-30T02:20:46;18.45;;;13.30;;
14665;SDS011;7420;53.574;10.040;2022-09-30T02:23:18;20.27;;;14.13;;
14665;SDS011;7420;53.574;10.040;2022-09-30T02:26:08;20.77;;;14.13;;
14665;SDS011;7420;53.574;10.040;2022-09-30T02:28:41;23.30;;;14.77;;
14665;SDS011;7420;53.574;10.040;2022-09-30T02:31:12;20.13;;;13.82;;
14665;SDS011;7420;53.574;10.040;2022-09-30T02:36:09;19.73;;;14.10;;
14665;SDS011;7420;53.574;10.040;2022-09-30T02:38:45;20.05;;;14.98;;
14665;SDS011;7420;53.574;10.040;2022-09-30T02:41:16;20.45;;;14.45;;
14665;SDS011;7420;53.574;10.040;2022-09-30T02:43:45;20.27;;;13.30;;
14665;SDS011;7420;53.574;10.040;2022-09-30T02:46:15;22.67;;;15.60;;
14665;SDS011;7420;53.574;10.040;2022-09-30T02:51:36;22.08;;;15.25;;
14665;SDS011;7420;53.574;10.040;2022-09-30T02:54:15;20.40;;;15.02;;
14665;SDS011;7420;53.574;10.040;2022-09-30T02:57:03;23.50;;;15.35;;
14665;SDS011;7420;53.574;10.040;2022-09-30T02:59:41;21.05;;;15.10;;
14665;SDS011;7420;53.574;10.040;2022-09-30T03:02:07;23.33;;;15.93;;
14665;SDS011;7420;53.574;10.040;2022-09-30T03:04:32;32.63;;;16.70;;
14665;SDS011;7420;53.574;10.040;2022-09-30T03:06:59;23.92;;;15.68;;
14665;SDS011;7420;53.574;10.040;2022-09-30T03:09:25;25.25;;;17.20;;
14665;SDS011;7420;53.574;10.040;2022-09-30T03:11:51;22.55;;;15.30;;
14665;SDS011;7420;53.574;10.040;2022-09-30T03:14:27;23.13;;;15.32;;
14665;SDS011;7420;53.574;10.040;2022-09-30T03:17:00;23.20;;;15.73;;
14665;SDS011;7420;53.574;10.040;2022-09-30T03:22:30;25.05;;;16.33;;
14665;SDS011;7420;53.574;10.040;2022-09-30T03:31:10;22.47;;;14.87;;
14665;SDS011;7420;53.574;10.040;2022-09-30T03:34:01;22.70;;;15.65;;
14665;SDS011;7420;53.574;10.040;2022-09-30T03:36:42;25.58;;;16.77;;
14665;SDS011;7420;53.574;10.040;2022-09-30T03:42:14;24.55;;;15.35;;
14665;SDS011;7420;53.574;10.040;2022-09-30T03:47:26;22.70;;;16.63;;
14665;SDS011;7420;53.574;10.040;2022-09-30T03:49:56;21.35;;;15.38;;
14665;SDS011;7420;53.574;10.040;2022-09-30T03:52:24;22.67;;;16.40;;
14665;SDS011;7420;53.574;10.040;2022-09-30T03:54:54;22.40;;;15.75;;
14665;SDS011;7420;53.574;10.040;2022-09-30T03:57:24;18.80;;;14.45;;
14665;SDS011;7420;53.574;10.040;2022-09-30T03:59:50;22.30;;;15.27;;
14665;SDS011;7420;53.574;10.040;2022-09-30T04:02:16;19.33;;;14.82;;
14665;SDS011;7420;53.574;10.040;2022-09-30T04:04:41;23.15;;;16.05;;
14665;SDS011;7420;53.574;10.040;2022-09-30T04:07:09;22.77;;;15.18;;
14665;SDS011;7420;53.574;10.040;2022-09-30T04:09:35;21.92;;;15.85;;
14665;SDS011;7420;53.574;10.040;2022-09-30T04:12:01;21.33;;;15.43;;
14665;SDS011;7420;53.574;10.040;2022-09-30T04:14:27;23.65;;;16.73;;
14665;SDS011;7420;53.574;10.040;2022-09-30T04:16:53;26.23;;;16.33;;
14665;SDS011;7420;53.574;10.040;2022-09-30T04:19:18;25.35;;;16.27;;
14665;SDS011;7420;53.574;10.040;2022-09-30T04:21:43;24.83;;;16.38;;
14665;SDS011;7420;53.574;10.040;2022-09-30T04:24:09;26.10;;;17.30;;
14665;SDS011;7420;53.574;10.040;2022-09-30T04:26:35;23.88;;;16.40;;
14665;SDS011;7420;53.574;10.040;2022-09-30T04:29:00;22.55;;;15.73;;
14665;SDS011;7420;53.574;10.040;2022-09-30T04:31:25;28.38;;;19.30;;
14665;SDS011;7420;53.574;10.040;2022-09-30T04:33:51;23.35;;;17.58;;
14665;SDS011;7420;53.574;10.040;2022-09-30T04:36:16;28.15;;;18.55;;
14665;SDS011;7420;53.574;10.040;2022-09-30T04:38:42;25.20;;;17.40;;
14665;SDS011;7420;53.574;10.040;2022-09-30T04:41:08;27.75;;;16.77;;
14665;SDS011;7420;53.574;10.040;2022-09-30T04:43:42;24.42;;;17.27;;
14665;SDS011;7420;53.574;10.040;2022-09-30T04:46:11;25.80;;;17.90;;
14665;SDS011;7420;53.574;10.040;2022-09-30T04:48:40;25.65;;;16.40;;
14665;SDS011;7420;53.574;10.040;2022-09-30T04:51:09;21.70;;;16.95;;
14665;SDS011;7420;53.574;10.040;2022-09-30T04:53:39;27.08;;;16.45;;
14665;SDS011;7420;53.574;10.040;2022-09-30T04:56:05;24.33;;;17.38;;
14665;SDS011;7420;53.574;10.040;2022-09-30T04:58:31;25.40;;;17.67;;
14665;SDS011;7420;53.574;10.040;2022-09-30T05:01:02;20.02;;;15.65;;
14665;SDS011;7420;53.574;10.040;2022-09-30T05:03:29;22.53;;;16.87;;
14665;SDS011;7420;53.574;10.040;2022-09-30T05:05:55;23.83;;;17.63;;
14665;SDS011;7420;53.574;10.040;2022-09-30T05:08:20;25.55;;;16.38;;
14665;SDS011;7420;53.574;10.040;2022-09-30T05:10:54;26.08;;;18.17;;
14665;SDS011;7420;53.574;10.040;2022-09-30T05:13:21;27.25;;;18.35;;
14665;SDS011;7420;53.574;10.040;2022-09-30T05:15:50;25.90;;;16.92;;
14665;SDS011;7420;53.574;10.040;2022-09-30T05:18:17;25.52;;;18.00;;
14665;SDS011;7420;53.574;10.040;2022-09-30T05:20:48;26.23;;;17.88;;
14665;SDS011;7420;53.574;10.040;2022-09-30T05:23:16;24.98;;;16.75;;
14665;SDS011;7420;53.574;10.040;2022-09-30T05:25:42;26.95;;;17.30;;
14665;SDS011;7420;53.574;10.040;2022-09-30T05:28:08;25.13;;;17.80;;
14665;SDS011;7420;53.574;10.040;2022-09-30T05:30:33;26.10;;;18.45;;
14665;SDS011;7420;53.574;10.040;2022-09-30T05:32:58;26.52;;;17.77;;
14665;SDS011;7420;53.574;10.040;2022-09-30T05:35:24;25.70;;;17.67;;
14665;SDS011;7420;53.574;10.040;2022-09-30T05:37:49;27.73;;;18.50;;
14665;SDS011;7420;53.574;10.040;2022-09-30T05:40:15;25.67;;;17.35;;
14665;SDS011;7420;53.574;10.040;2022-09-30T05:42:40;32.83;;;18.42;;
14665;SDS011;7420;53.574;10.040;2022-09-30T05:45:06;25.98;;;18.60;;
14665;SDS011;7420;53.574;10.040;2022-09-30T05:47:32;30.10;;;19.38;;
14665;SDS011;7420;53.574;10.040;2022-09-30T05:49:57;30.90;;;18.52;;
14665;SDS011;7420;53.574;10.040;2022-09-30T05:52:23;27.40;;;19.23;;
14665;SDS011;7420;53.574;10.040;2022-09-30T05:54:49;29.92;;;19.45;;
14665;SDS011;7420;53.574;10.040;2022-09-30T05:57:14;28.67;;;19.92;;
14665;SDS011;7420;53.574;10.040;2022-09-30T05:59:41;28.13;;;19.33;;
14665;SDS011;7420;53.574;10.040;2022-09-30T06:02:07;27.13;;;19.73;;
14665;SDS011;7420;53.574;10.040;2022-09-30T06:04:33;30.45;;;20.13;;
14665;SDS011;7420;53.574;10.040;2022-09-30T06:06:58;31.27;;;21.17;;
14665;SDS011;7420;53.574;10.040;2022-09-30T06:09:24;30.88;;;19.13;;
14665;SDS011;7420;53.574;10.040;2022-09-30T06:11:49;28.55;;;19.33;;
14665;SDS011;7420;53.574;10.040;2022-09-30T06:14:14;28.35;;;19.33;;
14665;SDS011;7420;53.574;10.040;2022-09-30T06:16:42;24.95;;;18.88;;
14665;SDS011;7420;53.574;10.040;2022-09-30T06:19:08;32.35;;;19.98;;
14665;SDS011;7420;53.574;10.040;2022-09-30T06:21:33;31.55;;;21.10;;
14665;SDS011;7420;53.574;10.040;2022-09-30T06:23:58;27.88;;;18.95;;
14665;SDS011;7420;53.574;10.040;2022-09-30T06:26:24;29.08;;;19.73;;
14665;SDS011;7420;53.574;10.040;2022-09-30T06:28:49;29.48;;;20.05;;
14665;SDS011;7420;53.574;10.040;2022-09-30T06:31:15;29.02;;;18.73;;
14665;SDS011;7420;53.574;10.040;2022-09-30T06:33:41;31.67;;;20.27;;
14665;SDS011;7420;53.574;10.040;2022-09-30T06:36:07;32.45;;;20.70;;
14665;SDS011;7420;53.574;10.040;2022-09-30T06:38:32;27.52;;;19.08;;
14665;SDS011;7420;53.574;10.040;2022-09-30T06:41:04;26.52;;;17.52;;
14665;SDS011;7420;53.574;10.040;2022-09-30T06:43:29;25.90;;;19.00;;
14665;SDS011;7420;53.574;10.040;2022-09-30T06:45:55;25.88;;;17.30;;
14665;SDS011;7420;53.574;10.040;2022-09-30T06:48:20;26.27;;;18.40;;
14665;SDS011;7420;53.574;10.040;2022-09-30T06:50:47;25.67;;;17.88;;
14665;SDS011;7420;53.574;10.040;2022-09-30T06:53:12;25.50;;;17.58;;
14665;SDS011;7420;53.574;10.040;2022-09-30T06:55:38;24.88;;;16.90;;
14665;SDS011;7420;53.574;10.040;2022-09-30T06:58:04;26.55;;;17.60;;
14665;SDS011;7420;53.574;10.040;2022-09-30T07:00:33;25.60;;;16.77;;
14665;SDS011;7420;53.574;10.040;2022-09-30T07:03:00;25.55;;;18.75;;
14665;SDS011;7420;53.574;10.040;2022-09-30T07:05:25;21.27;;;16.83;;
14665;SDS011;7420;53.574;10.040;2022-09-30T07:07:51;24.83;;;16.92;;
14665;SDS011;7420;53.574;10.040;2022-09-30T07:10:18;23.77;;;15.25;;
14665;SDS011;7420;53.574;10.040;2022-09-30T07:12:47;22.77;;;16.00;;
14665;SDS011;7420;53.574;10.040;2022-09-30T07:15:13;21.52;;;16.38;;
14665;SDS011;7420;53.574;10.040;2022-09-30T07:17:38;20.13;;;15.30;;
14665;SDS011;7420;53.574;10.040;2022-09-30T07:20:04;22.95;;;16.65;;
14665;SDS011;7420;53.574;10.040;2022-09-30T07:22:30;23.33;;;17.23;;
14665;SDS011;7420;53.574;10.040;2022-09-30T07:24:56;19.38;;;15.30;;
14665;SDS011;7420;53.574;10.040;2022-09-30T07:27:24;18.83;;;15.05;;
14665;SDS011;7420;53.574;10.040;2022-09-30T07:29:50;20.33;;;15.48;;
14665;SDS011;7420;53.574;10.040;2022-09-30T07:32:16;20.83;;;14.82;;
14665;SDS011;7420;53.574;10.040;2022-09-30T07:34:43;20.70;;;16.17;;
14665;SDS011;7420;53.574;10.040;2022-09-30T07:37:10;20.80;;;14.57;;
14665;SDS011;7420;53.574;10.040;2022-09-30T07:39:38;16.83;;;14.05;;
14665;SDS011;7420;53.574;10.040;2022-09-30T07:42:04;18.77;;;13.85;;
14665;SDS011;7420;53.574;10.040;2022-09-30T07:44:29;20.83;;;14.23;;
14665;SDS011;7420;53.574;10.040;2022-09-30T07:46:55;16.25;;;12.73;;
14665;SDS011;7420;53.574;10.040;2022-09-30T07:49:22;18.92;;;13.88;;
14665;SDS011;7420;53.574;10.040;2022-09-30T07:51:53;16.65;;;13.80;;
14665;SDS011;7420;53.574;10.040;2022-09-30T07:54:25;17.48;;;12.80;;
14665;SDS011;7420;53.574;10.040;2022-09-30T07:56:52;16.67;;;12.80;;
14665;SDS011;7420;53.574;10.040;2022-09-30T07:59:17;16.45;;;13.30;;
14665;SDS011;7420;53.574;10.040;2022-09-30T08:01:43;16.70;;;11.63;;
14665;SDS011;7420;53.574;10.040;2022-09-30T08:04:10;17.75;;;13.00;;
14665;SDS011;7420;53.574;10.040;2022-09-30T08:06:48;15.45;;;12.57;;
14665;SDS011;7420;53.574;10.040;2022-09-30T08:09:19;17.90;;;13.13;;
14665;SDS011;7420;53.574;10.040;2022-09-30T08:11:46;12.63;;;10.43;;
14665;SDS011;7420;53.574;10.040;2022-09-30T08:14:13;18.85;;;11.95;;
14665;SDS011;7420;53.574;10.040;2022-09-30T08:16:39;15.05;;;10.80;;
14665;SDS011;7420;53.574;10.040;2022-09-30T08:19:05;16.25;;;11.80;;
14665;SDS011;7420;53.574;10.040;2022-09-30T08:21:30;12.73;;;9.38;;
14665;SDS011;7420;53.574;10.040;2022-09-30T08:23:56;11.70;;;9.85;;
14665;SDS011;7420;53.574;10.040;2022-09-30T08:26:21;16.77;;;11.85;;
14665;SDS011;7420;53.574;10.040;2022-09-30T08:28:48;18.60;;;10.10;;
14665;SDS011;7420;53.574;10.040;2022-09-30T08:31:18;15.13;;;9.40;;
14665;SDS011;7420;53.574;10.040;2022-09-30T08:33:46;12.80;;;8.85;;
14665;SDS011;7420;53.574;10.040;2022-09-30T08:36:12;13.15;;;8.25;;
14665;SDS011;7420;53.574;10.040;2022-09-30T08:38:39;11.50;;;7.40;;
14665;SDS011;7420;53.574;10.040;2022-09-30T08:41:11;11.32;;;8.18;;
14665;SDS011;7420;53.574;10.040;2022-09-30T08:46:22;7.10;;;6.35;;
14665;SDS011;7420;53.574;10.040;2022-09-30T08:53:59;7.32;;;4.80;;
14665;SDS011;7420;53.574;10.040;2022-09-30T08:56:30;6.43;;;4.60;;
14665;SDS011;7420;53.574;10.040;2022-09-30T08:59:06;8.02;;;4.88;;
14665;SDS011;7420;53.574;10.040;2022-09-30T09:01:49;5.72;;;4.10;;
14665;SDS011;7420;53.574;10.040;2022-09-30T09:04:19;6.10;;;3.50;;
14665;SDS011;7420;53.574;10.040;2022-09-30T09:06:56;4.88;;;3.40;;
14665;SDS011;7420;53.574;10.040;2022-09-30T09:09:41;7.28;;;4.20;;
14665;SDS011;7420;53.574;10.040;2022-09-30T09:12:14;5.60;;;4.18;;
14665;SDS011;7420;53.574;10.040;2022-09-30T09:17:47;5.95;;;3.38;;
14665;SDS011;7420;53.574;10.040;2022-09-30T09:20:22;8.68;;;3.38;;
14665;SDS011;7420;53.574;10.040;2022-09-30T09:22:56;3.42;;;2.67;;
14665;SDS011;7420;53.574;10.040;2022-09-30T09:25:25;5.68;;;3.15;;
14665;SDS011;7420;53.574;10.040;2022-09-30T09:27:56;5.82;;;3.22;;
14665;SDS011;7420;53.574;10.040;2022-09-30T09:30:25;4.15;;;2.83;;
14665;SDS011;7420;53.574;10.040;2022-09-30T09:32:59;3.47;;;2.60;;
14665;SDS011;7420;53.574;10.040;2022-09-30T09:35:47;4.82;;;3.08;;
14665;SDS011;7420;53.574;10.040;2022-09-30T09:38:49;4.45;;;2.75;;
14665;SDS011;7420;53.574;10.040;2022-09-30T09:47:00;4.70;;;3.20;;
14665;SDS011;7420;53.574;10.040;2022-09-30T09:49:30;5.35;;;2.53;;
14665;SDS011;7420;53.574;10.040;2022-09-30T09:54:46;6.50;;;2.88;;
14665;SDS011;7420;53.574;10.040;2022-09-30T09:57:17;3.85;;;2.45;;
14665;SDS011;7420;53.574;10.040;2022-09-30T10:03:04;3.47;;;2.70;;
14665;SDS011;7420;53.574;10.040;2022-09-30T10:05:36;4.68;;;2.83;;
14665;SDS011;7420;53.574;10.040;2022-09-30T10:08:14;3.85;;;2.30;;
14665;SDS011;7420;53.574;10.040;2022-09-30T10:13:18;3.30;;;2.55;;
14665;SDS011;7420;53.574;10.040;2022-09-30T10:15:48;3.70;;;2.67;;
14665;SDS011;7420;53.574;10.040;2022-09-30T10:18:17;4.72;;;3.55;;
14665;SDS011;7420;53.574;10.040;2022-09-30T10:20:49;4.22;;;3.28;;
14665;SDS011;7420;53.574;10.040;2022-09-30T10:23:18;5.63;;;3.70;;
14665;SDS011;7420;53.574;10.040;2022-09-30T10:25:55;5.13;;;3.20;;
14665;SDS011;7420;53.574;10.040;2022-09-30T10:28:27;7.43;;;3.67;;
14665;SDS011;7420;53.574;10.040;2022-09-30T10:33:42;4.70;;;3.17;;
14665;SDS011;7420;53.574;10.040;2022-09-30T10:36:19;4.22;;;2.92;;
14665;SDS011;7420;53.574;10.040;2022-09-30T10:41:47;5.65;;;3.20;;
14665;SDS011;7420;53.574;10.040;2022-09-30T10:44:20;5.55;;;2.90;;
14665;SDS011;7420;53.574;10.040;2022-09-30T10:46:48;4.50;;;3.08;;
14665;SDS011;7420;53.574;10.040;2022-09-30T10:49:26;4.88;;;2.70;;
14665;SDS011;7420;53.574;10.040;2022-09-30T10:51:53;4.65;;;2.75;;
14665;SDS011;7420;53.574;10.040;2022-09-30T10:54:55;3.17;;;2.60;;
14665;SDS011;7420;53.574;10.040;2022-09-30T10:57:19;4.57;;;3.15;;
14665;SDS011;7420;53.574;10.040;2022-09-30T10:59:44;5.03;;;2.67;;
14665;SDS011;7420;53.574;10.040;2022-09-30T11:02:33;3.90;;;3.00;;
14665;SDS011;7420;53.574;10.040;2022-09-30T11:05:12;3.80;;;2.85;;
14665;SDS011;7420;53.574;10.040;2022-09-30T11:13:36;6.65;;;3.10;;
14665;SDS011;7420;53.574;10.040;2022-09-30T11:16:13;3.42;;;2.40;;
14665;SDS011;7420;53.574;10.040;2022-09-30T11:24:30;4.93;;;2.10;;
14665;SDS011;7420;53.574;10.040;2022-09-30T11:32:47;3.35;;;1.77;;
14665;SDS011;7420;53.574;10.040;2022-09-30T11:35:35;4.28;;;1.77;;
14665;SDS011;7420;53.574;10.040;2022-09-30T11:41:13;1.48;;;1.33;;
14665;SDS011;7420;53.574;10.040;2022-09-30T11:52:54;3.30;;;1.55;;
14665;SDS011;7420;53.574;10.040;2022-09-30T12:00:35;2.28;;;1.30;;
14665;SDS011;7420;53.574;10.040;2022-09-30T12:03:06;5.55;;;1.73;;
14665;SDS011;7420;53.574;10.040;2022-09-30T12:08:10;2.35;;;1.88;;
14665;SDS011;7420;53.574;10.040;2022-09-30T12:10:44;2.80;;;1.92;;
14665;SDS011;7420;53.574;10.040;2022-09-30T12:13:16;2.75;;;2.22;;
14665;SDS011;7420;53.574;10.040;2022-09-30T12:15:47;3.03;;;2.22;;
14665;SDS011;7420;53.574;10.040;2022-09-30T12:18:15;2.70;;;1.90;;
14665;SDS011;7420;53.574;10.040;2022-09-30T12:20:49;2.70;;;2.30;;
14665;SDS011;7420;53.574;10.040;2022-09-30T12:23:19;4.07;;;2.85;;
14665;SDS011;7420;53.574;10.040;2022-09-30T12:26:22;3.72;;;2.92;;
14665;SDS011;7420;53.574;10.040;2022-09-30T12:28:51;3.53;;;2.85;;
14665;SDS011;7420;53.574;10.040;2022-09-30T12:40:36;4.57;;;3.75;;
14665;SDS011;7420;53.574;10.040;2022-09-30T12:43:17;5.68;;;4.80;;
14665;SDS011;7420;53.574;10.040;2022-09-30T12:48:32;6.55;;;4.97;;
14665;SDS011;7420;53.574;10.040;2022-09-30T12:51:01;5.57;;;5.07;;
14665;SDS011;7420;53.574;10.040;2022-09-30T12:53:28;7.60;;;4.65;;
14665;SDS011;7420;53.574;10.040;2022-09-30T12:56:04;5.47;;;3.85;;
14665;SDS011;7420;53.574;10.040;2022-09-30T12:58:36;5.13;;;3.78;;
14665;SDS011;7420;53.574;10.040;2022-09-30T13:06:21;6.78;;;4.70;;
14665;SDS011;7420;53.574;10.040;2022-09-30T13:08:48;7.03;;;4.95;;
14665;SDS011;7420;53.574;10.040;2022-09-30T13:14:10;3.72;;;3.33;;
14665;SDS011;7420;53.574;10.040;2022-09-30T13:19:36;5.68;;;4.20;;
14665;SDS011;7420;53.574;10.040;2022-09-30T13:27:32;3.88;;;3.40;;
14665;SDS011;7420;53.574;10.040;2022-09-30T13:32:44;6.35;;;3.65;;
14665;SDS011;7420;53.574;10.040;2022-09-30T13:40:42;5.55;;;3.30;;
14665;SDS011;7420;53.574;10.040;2022-09-30T13:43:27;5.25;;;3.50;;
14665;SDS011;7420;53.574;10.040;2022-09-30T13:45:58;4.47;;;3.70;;
14665;SDS011;7420;53.574;10.040;2022-09-30T13:48:57;5.13;;;3.35;;
14665;SDS011;7420;53.574;10.040;2022-09-30T13:51:27;4.30;;;3.78;;
14665;SDS011;7420;53.574;10.040;2022-09-30T13:53:56;7.53;;;4.00;;
14665;SDS011;7420;53.574;10.040;2022-09-30T13:56:28;4.43;;;3.85;;
14665;SDS011;7420;53.574;10.040;2022-09-30T14:01:39;4.78;;;3.78;;
14665;SDS011;7420;53.574;10.040;2022-09-30T14:07:04;6.75;;;3.92;;
14665;SDS011;7420;53.574;10.040;2022-09-30T14:09:58;5.80;;;4.65;;
14665;SDS011;7420;53.574;10.040;2022-09-30T14:12:49;5.60;;;3.85;;
14665;SDS011;7420;53.574;10.040;2022-09-30T14:21:29;5.35;;;4.00;;
14665;SDS011;7420;53.574;10.040;2022-09-30T14:24:21;6.35;;;4.10;;
14665;SDS011;7420;53.574;10.040;2022-09-30T14:31:50;6.18;;;4.85;;
14665;SDS011;7420;53.574;10.040;2022-09-30T14:34:16;6.68;;;5.40;;
14665;SDS011;7420;53.574;10.040;2022-09-30T14:36:44;5.82;;;4.80;;
14665;SDS011;7420;53.574;10.040;2022-09-30T14:39:13;5.93;;;4.78;;
14665;SDS011;7420;53.574;10.040;2022-09-30T14:41:50;5.07;;;3.92;;
14665;SDS011;7420;53.574;10.040;2022-09-30T14:44:19;6.13;;;4.95;;
14665;SDS011;7420;53.574;10.040;2022-09-30T14:46:46;6.40;;;5.75;;
14665;SDS011;7420;53.574;10.040;2022-09-30T14:49:14;5.82;;;4.95;;
14665;SDS011;7420;53.574;10.040;2022-09-30T14:51:44;6.88;;;5.13;;
14665;SDS011;7420;53.574;10.040;2022-09-30T14:54:16;7.05;;;5.78;;
14665;SDS011;7420;53.574;10.040;2022-09-30T14:56:46;6.20;;;5.60;;
14665;SDS011;7420;53.574;10.040;2022-09-30T14:59:23;6.95;;;6.25;;
14665;SDS011;7420;53.574;10.040;2022-09-30T15:01:57;8.15;;;5.60;;
14665;SDS011;7420;53.574;10.040;2022-09-30T15:04:28;5.82;;;5.18;;
14665;SDS011;7420;53.574;10.040;2022-09-30T15:06:56;6.35;;;5.15;;
14665;SDS011;7420;53.574;10.040;2022-09-30T15:12:04;6.93;;;5.78;;
14665;SDS011;7420;53.574;10.040;2022-09-30T15:14:43;7.80;;;5.85;;
14665;SDS011;7420;53.574;10.040;2022-09-30T15:17:18;5.80;;;5.20;;
14665;SDS011;7420;53.574;10.040;2022-09-30T15:19:45;6.90;;;4.90;;
14665;SDS011;7420;53.574;10.040;2022-09-30T15:22:11;5.93;;;4.57;;
14665;SDS011;7420;53.574;10.040;2022-09-30T15:24:38;7.15;;;5.95;;
14665;SDS011;7420;53.574;10.040;2022-09-30T15:27:04;5.78;;;4.60;;
14665;SDS011;7420;53.574;10.040;2022-09-30T15:29:34;6.35;;;4.50;;
14665;SDS011;7420;53.574;10.040;2022-09-30T15:34:36;7.47;;;5.38;;
14665;SDS011;7420;53.574;10.040;2022-09-30T15:37:02;5.55;;;4.82;;
14665;SDS011;7420;53.574;10.040;2022-09-30T15:39:33;5.88;;;5.13;;
14665;SDS011;7420;53.574;10.040;2022-09-30T15:45:27;10.13;;;4.88;;
14665;SDS011;7420;53.574;10.040;2022-09-30T15:47:59;4.75;;;4.35;;
14665;SDS011;7420;53.574;10.040;2022-09-30T15:55:41;6.05;;;4.90;;
14665;SDS011;7420;53.574;10.040;2022-09-30T16:01:14;5.93;;;4.93;;
14665;SDS011;7420;53.574;10.040;2022-09-30T16:03:59;5.65;;;5.00;;
14665;SDS011;7420;53.574;10.040;2022-09-30T16:06:32;6.93;;;4.45;;
14665;SDS011;7420;53.574;10.040;2022-09-30T16:09:02;5.28;;;4.78;;
14665;SDS011;7420;53.574;10.040;2022-09-30T16:11:39;5.78;;;4.70;;
14665;SDS011;7420;53.574;10.040;2022-09-30T16:14:08;5.65;;;4.68;;
14665;SDS011;7420;53.574;10.040;2022-09-30T16:16:41;6.05;;;5.22;;
14665;SDS011;7420;53.574;10.040;2022-09-30T16:19:16;7.45;;;5.13;;
14665;SDS011;7420;53.574;10.040;2022-09-30T16:21:43;5.88;;;5.32;;
14665;SDS011;7420;53.574;10.040;2022-09-30T16:26:47;7.15;;;6.18;;
14665;SDS011;7420;53.574;10.040;2022-09-30T16:29:14;6.38;;;5.43;;
14665;SDS011;7420;53.574;10.040;2022-09-30T16:31:40;8.23;;;5.20;;
14665;SDS011;7420;53.574;10.040;2022-09-30T16:34:09;9.20;;;6.40;;
14665;SDS011;7420;53.574;10.040;2022-09-30T16:36:42;6.35;;;5.75;;
14665;SDS011;7420;53.574;10.040;2022-09-30T16:39:08;8.10;;;5.95;;
14665;SDS011;7420;53.574;10.040;2022-09-30T16:41:38;6.75;;;5.45;;
14665;SDS011;7420;53.574;10.040;2022-09-30T16:44:04;7.10;;;5.78;;
14665;SDS011;7420;53.574;10.040;2022-09-30T16:46:30;7.75;;;6.85;;
14665;SDS011;7420;53.574;10.040;2022-09-30T16:48:57;10.20;;;7.00;;
14665;SDS011;7420;53.574;10.040;2022-09-30T16:51:23;7.93;;;6.90;;
14665;SDS011;7420;53.574;10.040;2022-09-30T16:53:48;7.88;;;7.07;;
14665;SDS011;7420;53.574;10.040;2022-09-30T16:56:14;9.27;;;6.70;;
14665;SDS011;7420;53.574;10.040;2022-09-30T16:58:41;8.38;;;7.00;;
14665;SDS011;7420;53.574;10.040;2022-09-30T17:01:21;10.40;;;7.70;;
14665;SDS011;7420;53.574;10.040;2022-09-30T17:03:47;12.27;;;7.63;;
14665;SDS011;7420;53.574;10.040;2022-09-30T17:06:17;9.23;;;7.60;;
14665;SDS011;7420;53.574;10.040;2022-09-30T17:08:44;7.85;;;7.05;;
14665;SDS011;7420;53.574;10.040;2022-09-30T17:11:10;7.57;;;6.75;;
14665;SDS011;7420;53.574;10.040;2022-09-30T17:13:35;9.30;;;7.45;;
14665;SDS011;7420;53.574;10.040;2022-09-30T17:16:01;8.70;;;6.85;;
14665;SDS011;7420;53.574;10.040;2022-09-30T17:18:26;10.25;;;7.72;;
14665;SDS011;7420;53.574;10.040;2022-09-30T17:20:52;11.77;;;8.35;;
14665;SDS011;7420;53.574;10.040;2022-09-30T17:23:21;9.05;;;7.63;;
14665;SDS011;7420;53.574;10.040;2022-09-30T17:25:48;9.93;;;8.65;;
14665;SDS011;7420;53.574;10.040;2022-09-30T17:28:14;11.27;;;7.78;;
14665;SDS011;7420;53.574;10.040;2022-09-30T17:30:40;8.98;;;7.88;;
14665;SDS011;7420;53.574;10.040;2022-09-30T17:33:08;10.95;;;7.28;;
14665;SDS011;7420;53.574;10.040;2022-09-30T17:35:37;9.13;;;7.38;;
14665;SDS011;7420;53.574;10.040;2022-09-30T17:38:09;10.85;;;7.88;;
14665;SDS011;7420;53.574;10.040;2022-09-30T17:40:36;11.60;;;7.47;;
14665;SDS011;7420;53.574;10.040;2022-09-30T17:45:45;8.95;;;6.55;;
14665;SDS011;7420;53.574;10.040;2022-09-30T17:48:12;7.68;;;6.60;;
14665;SDS011;7420;53.574;10.040;2022-09-30T17:50:39;10.80;;;7.00;;
14665;SDS011;7420;53.574;10.040;2022-09-30T17:53:08;9.90;;;6.53;;
14665;SDS011;7420;53.574;10.040;2022-09-30T17:55:33;9.52;;;7.75;;
14665;SDS011;7420;53.574;10.040;2022-09-30T17:58:02;6.85;;;6.15;;
14665;SDS011;7420;53.574;10.040;2022-09-30T18:00:27;8.52;;;6.80;;
14665;SDS011;7420;53.574;10.040;2022-09-30T18:02:53;9.02;;;6.80;;
14665;SDS011;7420;53.574;10.040;2022-09-30T18:05:18;8.70;;;6.65;;